createdAt,value
2023-09-22T06:38:21.213Z,99533.22
2023-09-22T06:43:23.485Z,99525.03
2023-09-22T06:48:54.544Z,99534.44
2023-09-22T06:53:49.434Z,99481.28
2023-09-22T06:58:49.350Z,99422.69
2023-09-22T07:03:47.906Z,99556.38
2023-09-22T07:08:42.245Z,99505.59
2023-09-22T07:13:36.508Z,99509.91
2023-09-22T07:18:29.113Z,99555.16
2023-09-22T07:23:22.774Z,99568.09
2023-09-22T07:28:17.956Z,99593.72
2023-09-22T07:33:12.173Z,99532.97
2023-09-22T07:38:05.064Z,99542.81
2023-09-22T07:42:59.914Z,99567.78
2023-09-22T07:47:54.287Z,99586.72
2023-09-22T07:52:46.734Z,99570.13
2023-09-22T07:57:41.286Z,99520.19
2023-09-22T08:02:39.214Z,99529.06
2023-09-22T08:07:35.314Z,99561.22
2023-09-22T08:12:32.618Z,99593.81
2023-09-22T08:17:30.198Z,99610.88
2023-09-22T08:22:22.353Z,99581.78
2023-09-22T08:27:17.237Z,99590.53
2023-09-22T08:32:10.624Z,99597.41
2023-09-22T08:37:02.906Z,99553.56
2023-09-22T08:41:55.718Z,99508.09
2023-09-22T08:46:49.490Z,99565.28
2023-09-22T08:51:42.743Z,99565.75
2023-09-22T08:56:36.999Z,99562.31
2023-09-22T09:01:29.285Z,99552.66
2023-09-22T09:06:22.531Z,99579.56
2023-09-22T09:11:16.383Z,99537.34
2023-09-22T09:16:12.041Z,99504.06
2023-09-22T09:21:19.240Z,99584.47
2023-09-22T09:26:11.233Z,99557.06
2023-09-22T09:31:03.851Z,99512.81
2023-09-22T09:35:57.898Z,99596.06
2023-09-22T09:40:53.179Z,99535.91
2023-09-22T09:45:51.305Z,99565.28
2023-09-22T09:50:47.260Z,99601.81
2023-09-22T09:55:41.229Z,99597.56
2023-09-22T10:00:37.889Z,99563.72
2023-09-22T10:05:33.495Z,99599.34
2023-09-22T10:10:29.564Z,99480.03
2023-09-22T10:15:56.807Z,99607.09
2023-09-22T10:20:52.260Z,99574.03
2023-09-22T10:25:46.648Z,99607.88
2023-09-22T10:30:46.157Z,99633.50
2023-09-22T10:35:43.937Z,99563.09
2023-09-22T10:40:37.528Z,99631.16
2023-09-22T10:45:32.341Z,99623.28
2023-09-22T10:50:45.120Z,99635.72
2023-09-22T10:55:49.060Z,99639.66
2023-09-22T11:00:55.521Z,99614.06
2023-09-22T11:06:10.192Z,99630.13
2023-09-22T11:11:03.813Z,99639.72
2023-09-22T11:16:03.548Z,99639.28
2023-09-22T11:21:07.110Z,99633.81
2023-09-22T11:26:03.569Z,99523.19
2023-09-22T11:30:55.993Z,99654.59
2023-09-22T11:35:52.630Z,99609.69
2023-09-22T11:45:53.807Z,99568.66
2023-09-22T11:50:57.888Z,99612.38
2023-09-22T11:56:08.946Z,99638.56
2023-09-22T12:01:02.561Z,99660.59
2023-09-22T12:11:06.408Z,99587.91
2023-09-22T12:16:00.342Z,99660.34
2023-09-22T12:20:53.320Z,99656.81
2023-09-22T12:25:46.700Z,99622.03
2023-09-22T12:36:00.366Z,99615.41
2023-09-22T12:46:01.914Z,99647.59
2023-09-22T12:50:56.692Z,99630.53
2023-09-22T12:55:49.516Z,99632.25
2023-09-22T13:00:44.429Z,99587.56
2023-09-22T13:05:36.884Z,99559.03
2023-09-22T13:10:32.935Z,99585.75
2023-09-22T13:15:25.013Z,99609.59
2023-09-22T13:20:23.092Z,99552.78
2023-09-22T13:25:16.266Z,99622.31
2023-09-22T13:30:13.389Z,99566.69
2023-09-22T13:35:11.517Z,99598.88
2023-09-22T13:40:05.756Z,99606.53
2023-09-22T13:44:59.379Z,99551.53
2023-09-22T13:49:54.403Z,99598.97
2023-09-22T13:54:47.782Z,99539.44
2023-09-22T13:59:39.862Z,99570.38
2023-09-22T14:04:34.134Z,99565.19
2023-09-22T14:09:27.536Z,99538.97
2023-09-22T14:14:22.884Z,99581.44
2023-09-22T14:19:20.400Z,99522.06
2023-09-22T14:24:15.221Z,99562.72
2023-09-22T14:29:08.900Z,99581.91
2023-09-22T14:34:02.200Z,99530.94
2023-09-22T14:38:54.279Z,99546.22
2023-09-22T14:43:47.708Z,99614.78
2023-09-22T14:48:40.595Z,99614.91
2023-09-22T14:53:33.770Z,99600.53
2023-09-22T14:58:26.437Z,99537.44
2023-09-22T15:03:23.586Z,99636.09
2023-09-22T15:08:17.336Z,99643.69
2023-09-22T15:13:17.607Z,99621.31
2023-09-22T15:18:09.682Z,99643.31
2023-09-22T15:23:01.757Z,99632.28
2023-09-22T15:27:54.543Z,99686.50
2023-09-22T15:32:47.320Z,99709.63
2023-09-22T15:37:40.193Z,99681.94
2023-09-22T15:42:33.833Z,99720.63
2023-09-22T15:47:27.049Z,99694.81
2023-09-22T15:52:20.263Z,99675.03
2023-09-22T15:57:12.331Z,99720.19
2023-09-22T16:02:09.129Z,99627.69
2023-09-22T16:07:02.083Z,99683.56
2023-09-22T16:11:57.200Z,99689.19
2023-09-22T16:16:49.152Z,99722.97
2023-09-22T16:21:41.521Z,99673.03
2023-09-22T16:26:33.682Z,99714.53
2023-09-22T16:31:26.740Z,99646.41
2023-09-22T16:36:20.760Z,99708.34
2023-09-22T16:41:12.923Z,99668.88
2023-09-22T16:46:06.378Z,99695.91
2023-09-22T16:50:59.252Z,99710.59
2023-09-22T16:55:51.663Z,99685.06
2023-09-22T17:00:43.836Z,99612.84
2023-09-22T17:05:38.225Z,99696.34
2023-09-22T17:23:52.125Z,99704.72
2023-09-22T17:28:49.153Z,99728.09
2023-09-22T17:33:44.312Z,99741.88
2023-09-22T17:38:46.791Z,99763.84
2023-09-22T17:43:39.926Z,99730.84
2023-09-22T17:48:33.506Z,99754.88
2023-09-22T17:53:51.818Z,99721.28
2023-09-22T18:05:32.298Z,99766.72
2023-09-22T18:15:42.580Z,99730.25
2023-09-22T18:20:39.109Z,99738.66
2023-09-22T18:25:32.703Z,99766.16
2023-09-22T18:30:26.600Z,99787.84
2023-09-22T18:35:19.160Z,99736.84
2023-09-22T18:40:12.565Z,99747.97
2023-09-22T18:51:49.284Z,99797.44
2023-09-22T19:02:57.731Z,99772.06
2023-09-22T19:07:50.208Z,99774.69
2023-09-22T19:12:44.978Z,99787.13
2023-09-22T19:17:40.029Z,99815.72
2023-09-22T19:29:23.313Z,99868.59
2023-09-22T19:34:26.396Z,99828.88
2023-09-22T19:39:19.383Z,99863.59
2023-09-22T19:44:19.391Z,99886.34
2023-09-22T19:49:11.520Z,99814.88
2023-09-22T19:54:17.941Z,99877.09
2023-09-22T19:59:26.492Z,99920.25
2023-09-22T20:04:26.090Z,99928.66
2023-09-22T20:09:45.610Z,99906.41
2023-09-22T20:14:47.551Z,99882.16
2023-09-22T23:00:16.165Z,100167.53
2023-09-22T23:05:12.564Z,100151.84
2023-09-22T23:10:08.145Z,100179.09
2023-09-22T23:15:01.529Z,100158.34
2023-09-22T23:19:53.944Z,100202.91
2023-09-22T23:24:47.489Z,100184.41
2023-09-22T23:29:39.398Z,100207.13
2023-09-22T23:34:31.501Z,100129.44
2023-09-22T23:39:25.398Z,99948.00
2023-09-22T23:44:18.245Z,100234.78
2023-09-22T23:49:11.294Z,100227.75
2023-09-22T23:54:04.221Z,100181.53
2023-09-22T23:58:56.880Z,100213.03
